sensor_id;sensor_type;location;lat;lon;timestamp;P1;durP1;ratioP1;P2;durP2;ratioP2
55312;SDS011;46892;45.668;11.756;2023-09-12T00:01:03;15.03;;;12.17;;
55312;SDS011;46892;45.668;11.756;2023-09-12T00:03:32;13.23;;;11.83;;
55312;SDS011;46892;45.668;11.756;2023-09-12T00:05:59;19.80;;;13.93;;
55312;SDS011;46892;45.668;11.756;2023-09-12T00:08:26;15.03;;;12.93;;
55312;SDS011;46892;45.668;11.756;2023-09-12T00:10:59;16.30;;;12.37;;
55312;SDS011;46892;45.668;11.756;2023-09-12T00:13:29;14.20;;;11.67;;
55312;SDS011;46892;45.668;11.756;2023-09-12T00:15:56;13.90;;;12.40;;
55312;SDS011;46892;45.668;11.756;2023-09-12T00:18:22;13.13;;;11.33;;
55312;SDS011;46892;45.668;11.756;2023-09-12T00:20:48;15.13;;;12.03;;
55312;SDS011;46892;45.668;11.756;2023-09-12T00:23:14;15.33;;;12.47;;
55312;SDS011;46892;45.668;11.756;2023-09-12T00:25:40;16.93;;;12.43;;
55312;SDS011;46892;45.668;11.756;2023-09-12T00:28:06;16.70;;;13.60;;
55312;SDS011;46892;45.668;11.756;2023-09-12T00:30:31;16.53;;;13.03;;
55312;SDS011;46892;45.668;11.756;2023-09-12T00:32:57;15.47;;;13.47;;
55312;SDS011;46892;45.668;11.756;2023-09-12T00:35:23;21.00;;;13.63;;
55312;SDS011;46892;45.668;11.756;2023-09-12T00:37:48;15.90;;;13.47;;
55312;SDS011;46892;45.668;11.756;2023-09-12T00:40:14;15.37;;;12.90;;
55312;SDS011;46892;45.668;11.756;2023-09-12T00:42:40;12.90;;;11.50;;
55312;SDS011;46892;45.668;11.756;2023-09-12T00:45:06;13.20;;;11.63;;
55312;SDS011;46892;45.668;11.756;2023-09-12T00:47:32;15.10;;;11.80;;
55312;SDS011;46892;45.668;11.756;2023-09-12T00:49:58;16.33;;;11.93;;
55312;SDS011;46892;45.668;11.756;2023-09-12T00:52:25;18.17;;;12.07;;
55312;SDS011;46892;45.668;11.756;2023-09-12T00:54:53;13.40;;;11.57;;
55312;SDS011;46892;45.668;11.756;2023-09-12T00:57:19;14.43;;;11.47;;
55312;SDS011;46892;45.668;11.756;2023-09-12T00:59:49;13.27;;;10.83;;
55312;SDS011;46892;45.668;11.756;2023-09-12T01:02:18;13.27;;;11.27;;
55312;SDS011;46892;45.668;11.756;2023-09-12T01:04:44;13.17;;;10.93;;
55312;SDS011;46892;45.668;11.756;2023-09-12T01:07:11;13.93;;;10.87;;
55312;SDS011;46892;45.668;11.756;2023-09-12T01:09:37;14.27;;;11.23;;
55312;SDS011;46892;45.668;11.756;2023-09-12T01:12:03;12.77;;;11.20;;
55312;SDS011;46892;45.668;11.756;2023-09-12T01:14:29;15.57;;;11.50;;
55312;SDS011;46892;45.668;11.756;2023-09-12T01:16:56;16.20;;;11.53;;
55312;SDS011;46892;45.668;11.756;2023-09-12T01:19:23;16.80;;;11.80;;
55312;SDS011;46892;45.668;11.756;2023-09-12T01:27:21;12.33;;;10.70;;
55312;SDS011;46892;45.668;11.756;2023-09-12T01:29:49;14.70;;;12.03;;
55312;SDS011;46892;45.668;11.756;2023-09-12T01:32:18;13.90;;;12.40;;
55312;SDS011;46892;45.668;11.756;2023-09-12T01:34:45;14.13;;;12.13;;
55312;SDS011;46892;45.668;11.756;2023-09-12T01:37:11;13.40;;;11.53;;
55312;SDS011;46892;45.668;11.756;2023-09-12T01:39:37;13.00;;;11.43;;
55312;SDS011;46892;45.668;11.756;2023-09-12T01:42:02;14.00;;;12.03;;
55312;SDS011;46892;45.668;11.756;2023-09-12T01:44:30;14.43;;;11.30;;
55312;SDS011;46892;45.668;11.756;2023-09-12T01:46:57;12.20;;;10.83;;
55312;SDS011;46892;45.668;11.756;2023-09-12T01:49:27;15.20;;;12.20;;
55312;SDS011;46892;45.668;11.756;2023-09-12T01:51:54;13.20;;;11.77;;
55312;SDS011;46892;45.668;11.756;2023-09-12T01:54:21;14.63;;;11.83;;
55312;SDS011;46892;45.668;11.756;2023-09-12T01:56:48;16.10;;;11.47;;
55312;SDS011;46892;45.668;11.756;2023-09-12T01:59:14;13.93;;;11.33;;
55312;SDS011;46892;45.668;11.756;2023-09-12T02:01:40;14.27;;;10.87;;
55312;SDS011;46892;45.668;11.756;2023-09-12T02:04:07;15.27;;;10.50;;
55312;SDS011;46892;45.668;11.756;2023-09-12T02:06:34;11.77;;;10.33;;
55312;SDS011;46892;45.668;11.756;2023-09-12T02:09:00;13.97;;;12.37;;
55312;SDS011;46892;45.668;11.756;2023-09-12T02:11:26;14.93;;;11.90;;
55312;SDS011;46892;45.668;11.756;2023-09-12T02:13:52;14.27;;;11.90;;
55312;SDS011;46892;45.668;11.756;2023-09-12T02:16:18;13.37;;;11.97;;
55312;SDS011;46892;45.668;11.756;2023-09-12T02:18:44;13.70;;;11.47;;
55312;SDS011;46892;45.668;11.756;2023-09-12T02:21:09;13.53;;;11.70;;
55312;SDS011;46892;45.668;11.756;2023-09-12T02:23:35;13.13;;;10.77;;
55312;SDS011;46892;45.668;11.756;2023-09-12T02:26:01;12.97;;;10.73;;
55312;SDS011;46892;45.668;11.756;2023-09-12T02:28:27;11.80;;;10.50;;
55312;SDS011;46892;45.668;11.756;2023-09-12T02:30:52;16.20;;;12.07;;
55312;SDS011;46892;45.668;11.756;2023-09-12T02:33:18;14.30;;;10.87;;
55312;SDS011;46892;45.668;11.756;2023-09-12T02:35:44;13.07;;;9.97;;
55312;SDS011;46892;45.668;11.756;2023-09-12T02:38:10;12.70;;;10.80;;
55312;SDS011;46892;45.668;11.756;2023-09-12T02:40:35;12.10;;;10.80;;
55312;SDS011;46892;45.668;11.756;2023-09-12T02:43:01;13.10;;;11.50;;
55312;SDS011;46892;45.668;11.756;2023-09-12T02:45:27;13.70;;;11.23;;
55312;SDS011;46892;45.668;11.756;2023-09-12T02:47:53;14.60;;;11.97;;
55312;SDS011;46892;45.668;11.756;2023-09-12T02:50:18;13.43;;;12.03;;
55312;SDS011;46892;45.668;11.756;2023-09-12T02:52:44;13.57;;;11.43;;
55312;SDS011;46892;45.668;11.756;2023-09-12T02:55:10;13.07;;;10.20;;
55312;SDS011;46892;45.668;11.756;2023-09-12T02:57:36;12.93;;;11.03;;
55312;SDS011;46892;45.668;11.756;2023-09-12T03:00:02;12.10;;;10.70;;
55312;SDS011;46892;45.668;11.756;2023-09-12T03:02:31;13.03;;;11.27;;
55312;SDS011;46892;45.668;11.756;2023-09-12T03:04:56;14.83;;;11.27;;
55312;SDS011;46892;45.668;11.756;2023-09-12T03:07:22;12.63;;;10.67;;
55312;SDS011;46892;45.668;11.756;2023-09-12T03:09:48;13.53;;;11.07;;
55312;SDS011;46892;45.668;11.756;2023-09-12T03:12:17;14.53;;;10.73;;
55312;SDS011;46892;45.668;11.756;2023-09-12T03:14:43;13.53;;;9.97;;
55312;SDS011;46892;45.668;11.756;2023-09-12T03:17:09;15.77;;;10.27;;
55312;SDS011;46892;45.668;11.756;2023-09-12T03:19:34;10.93;;;9.10;;
55312;SDS011;46892;45.668;11.756;2023-09-12T03:22:00;13.90;;;10.33;;
55312;SDS011;46892;45.668;11.756;2023-09-12T03:24:26;13.43;;;10.20;;
55312;SDS011;46892;45.668;11.756;2023-09-12T03:26:54;15.27;;;10.67;;
55312;SDS011;46892;45.668;11.756;2023-09-12T03:29:20;11.80;;;8.73;;
55312;SDS011;46892;45.668;11.756;2023-09-12T03:31:45;13.20;;;10.03;;
55312;SDS011;46892;45.668;11.756;2023-09-12T03:34:11;13.27;;;10.37;;
55312;SDS011;46892;45.668;11.756;2023-09-12T03:36:37;15.97;;;11.93;;
55312;SDS011;46892;45.668;11.756;2023-09-12T03:39:03;14.83;;;10.80;;
55312;SDS011;46892;45.668;11.756;2023-09-12T03:41:33;13.47;;;10.93;;
55312;SDS011;46892;45.668;11.756;2023-09-12T03:44:02;13.63;;;11.43;;
55312;SDS011;46892;45.668;11.756;2023-09-12T03:46:27;12.43;;;9.97;;
55312;SDS011;46892;45.668;11.756;2023-09-12T03:48:53;13.27;;;11.00;;
55312;SDS011;46892;45.668;11.756;2023-09-12T03:51:19;12.83;;;10.23;;
55312;SDS011;46892;45.668;11.756;2023-09-12T03:53:44;12.67;;;10.53;;
55312;SDS011;46892;45.668;11.756;2023-09-12T03:56:12;11.57;;;9.97;;
55312;SDS011;46892;45.668;11.756;2023-09-12T03:58:39;12.53;;;9.37;;
55312;SDS011;46892;45.668;11.756;2023-09-12T04:01:05;14.50;;;10.33;;
55312;SDS011;46892;45.668;11.756;2023-09-12T04:03:31;12.23;;;10.37;;
55312;SDS011;46892;45.668;11.756;2023-09-12T04:05:57;11.93;;;10.57;;
55312;SDS011;46892;45.668;11.756;2023-09-12T04:08:22;13.00;;;10.17;;
55312;SDS011;46892;45.668;11.756;2023-09-12T04:10:48;14.70;;;12.03;;
55312;SDS011;46892;45.668;11.756;2023-09-12T04:13:14;13.20;;;11.47;;
55312;SDS011;46892;45.668;11.756;2023-09-12T04:15:39;13.60;;;11.50;;
55312;SDS011;46892;45.668;11.756;2023-09-12T04:18:05;13.10;;;10.57;;
55312;SDS011;46892;45.668;11.756;2023-09-12T04:20:31;15.17;;;12.37;;
55312;SDS011;46892;45.668;11.756;2023-09-12T04:23:00;16.23;;;12.30;;
55312;SDS011;46892;45.668;11.756;2023-09-12T04:25:28;12.80;;;11.13;;
55312;SDS011;46892;45.668;11.756;2023-09-12T04:27:54;13.73;;;11.63;;
55312;SDS011;46892;45.668;11.756;2023-09-12T04:30:20;16.53;;;10.87;;
55312;SDS011;46892;45.668;11.756;2023-09-12T04:32:46;15.00;;;10.70;;
55312;SDS011;46892;45.668;11.756;2023-09-12T04:35:11;13.63;;;10.33;;
55312;SDS011;46892;45.668;11.756;2023-09-12T04:37:37;14.87;;;10.70;;
55312;SDS011;46892;45.668;11.756;2023-09-12T04:40:03;13.33;;;10.50;;
55312;SDS011;46892;45.668;11.756;2023-09-12T04:42:31;13.10;;;10.50;;
55312;SDS011;46892;45.668;11.756;2023-09-12T04:44:56;13.37;;;10.47;;
55312;SDS011;46892;45.668;11.756;2023-09-12T04:47:22;10.73;;;9.50;;
55312;SDS011;46892;45.668;11.756;2023-09-12T04:49:48;12.20;;;10.23;;
55312;SDS011;46892;45.668;11.756;2023-09-12T04:52:14;13.03;;;9.63;;
55312;SDS011;46892;45.668;11.756;2023-09-12T04:54:40;10.27;;;9.17;;
55312;SDS011;46892;45.668;11.756;2023-09-12T04:57:05;13.20;;;9.60;;
55312;SDS011;46892;45.668;11.756;2023-09-12T04:59:32;11.73;;;8.80;;
55312;SDS011;46892;45.668;11.756;2023-09-12T05:01:58;15.80;;;10.00;;
55312;SDS011;46892;45.668;11.756;2023-09-12T05:04:24;12.27;;;9.53;;
55312;SDS011;46892;45.668;11.756;2023-09-12T05:06:50;12.57;;;10.90;;
55312;SDS011;46892;45.668;11.756;2023-09-12T05:09:15;13.93;;;9.23;;
55312;SDS011;46892;45.668;11.756;2023-09-12T05:11:41;13.10;;;9.47;;
55312;SDS011;46892;45.668;11.756;2023-09-12T05:14:07;12.43;;;9.03;;
55312;SDS011;46892;45.668;11.756;2023-09-12T05:16:33;15.00;;;9.87;;
55312;SDS011;46892;45.668;11.756;2023-09-12T05:18:58;11.07;;;9.00;;
55312;SDS011;46892;45.668;11.756;2023-09-12T05:21:24;13.07;;;10.63;;
55312;SDS011;46892;45.668;11.756;2023-09-12T05:23:50;12.83;;;10.47;;
55312;SDS011;46892;45.668;11.756;2023-09-12T05:26:17;14.97;;;10.83;;
55312;SDS011;46892;45.668;11.756;2023-09-12T05:28:47;13.37;;;10.37;;
55312;SDS011;46892;45.668;11.756;2023-09-12T05:31:12;13.67;;;10.63;;
55312;SDS011;46892;45.668;11.756;2023-09-12T05:33:38;14.03;;;11.23;;
55312;SDS011;46892;45.668;11.756;2023-09-12T05:36:04;12.97;;;10.43;;
55312;SDS011;46892;45.668;11.756;2023-09-12T05:38:30;13.20;;;10.97;;
55312;SDS011;46892;45.668;11.756;2023-09-12T05:40:56;11.80;;;10.43;;
55312;SDS011;46892;45.668;11.756;2023-09-12T05:43:22;16.00;;;10.90;;
55312;SDS011;46892;45.668;11.756;2023-09-12T05:45:48;13.57;;;11.20;;
55312;SDS011;46892;45.668;11.756;2023-09-12T05:48:14;11.93;;;10.20;;
55312;SDS011;46892;45.668;11.756;2023-09-12T05:50:40;13.47;;;10.37;;
55312;SDS011;46892;45.668;11.756;2023-09-12T05:53:05;13.47;;;11.10;;
55312;SDS011;46892;45.668;11.756;2023-09-12T05:55:32;14.57;;;11.30;;
55312;SDS011;46892;45.668;11.756;2023-09-12T05:57:58;15.43;;;11.27;;
55312;SDS011;46892;45.668;11.756;2023-09-12T06:00:24;14.83;;;11.03;;
55312;SDS011;46892;45.668;11.756;2023-09-12T06:02:50;17.93;;;11.60;;
55312;SDS011;46892;45.668;11.756;2023-09-12T06:05:16;13.27;;;10.60;;
55312;SDS011;46892;45.668;11.756;2023-09-12T06:07:42;14.10;;;10.80;;
55312;SDS011;46892;45.668;11.756;2023-09-12T06:10:08;13.53;;;10.43;;
55312;SDS011;46892;45.668;11.756;2023-09-12T06:12:34;15.23;;;10.90;;
55312;SDS011;46892;45.668;11.756;2023-09-12T06:15:01;16.10;;;11.70;;
55312;SDS011;46892;45.668;11.756;2023-09-12T06:17:29;14.50;;;12.50;;
55312;SDS011;46892;45.668;11.756;2023-09-12T06:19:55;18.47;;;13.53;;
55312;SDS011;46892;45.668;11.756;2023-09-12T06:22:21;15.40;;;12.87;;
55312;SDS011;46892;45.668;11.756;2023-09-12T06:24:48;18.37;;;13.07;;
55312;SDS011;46892;45.668;11.756;2023-09-12T06:27:17;20.80;;;12.70;;
55312;SDS011;46892;45.668;11.756;2023-09-12T06:29:46;17.63;;;14.27;;
55312;SDS011;46892;45.668;11.756;2023-09-12T06:32:15;19.30;;;12.25;;
55312;SDS011;46892;45.668;11.756;2023-09-12T06:34:43;15.20;;;11.53;;
55312;SDS011;46892;45.668;11.756;2023-09-12T06:37:10;15.30;;;11.60;;
55312;SDS011;46892;45.668;11.756;2023-09-12T06:39:36;14.30;;;11.30;;
55312;SDS011;46892;45.668;11.756;2023-09-12T06:42:02;14.53;;;11.07;;
55312;SDS011;46892;45.668;11.756;2023-09-12T06:44:27;18.27;;;12.50;;
55312;SDS011;46892;45.668;11.756;2023-09-12T06:46:53;19.30;;;12.30;;
55312;SDS011;46892;45.668;11.756;2023-09-12T06:49:19;13.83;;;11.60;;
55312;SDS011;46892;45.668;11.756;2023-09-12T06:51:45;13.33;;;11.77;;
55312;SDS011;46892;45.668;11.756;2023-09-12T06:54:10;16.67;;;10.20;;
55312;SDS011;46892;45.668;11.756;2023-09-12T06:56:37;13.83;;;10.50;;
55312;SDS011;46892;45.668;11.756;2023-09-12T06:59:03;13.23;;;9.87;;
55312;SDS011;46892;45.668;11.756;2023-09-12T07:01:29;14.97;;;10.97;;
55312;SDS011;46892;45.668;11.756;2023-09-12T07:03:55;14.23;;;10.17;;
55312;SDS011;46892;45.668;11.756;2023-09-12T07:06:22;11.77;;;8.23;;
55312;SDS011;46892;45.668;11.756;2023-09-12T07:08:48;9.98;;;8.43;;
55312;SDS011;46892;45.668;11.756;2023-09-12T07:11:14;10.40;;;8.30;;
55312;SDS011;46892;45.668;11.756;2023-09-12T07:13:41;13.30;;;9.17;;
55312;SDS011;46892;45.668;11.756;2023-09-12T07:16:07;10.53;;;8.67;;
55312;SDS011;46892;45.668;11.756;2023-09-12T07:18:32;10.77;;;8.60;;
55312;SDS011;46892;45.668;11.756;2023-09-12T07:20:59;14.23;;;8.35;;
55312;SDS011;46892;45.668;11.756;2023-09-12T07:23:26;11.00;;;9.10;;
55312;SDS011;46892;45.668;11.756;2023-09-12T07:25:52;13.20;;;9.10;;
55312;SDS011;46892;45.668;11.756;2023-09-12T07:28:20;11.20;;;8.40;;
55312;SDS011;46892;45.668;11.756;2023-09-12T07:30:46;10.93;;;8.33;;
55312;SDS011;46892;45.668;11.756;2023-09-12T07:33:12;12.32;;;8.25;;
55312;SDS011;46892;45.668;11.756;2023-09-12T07:35:38;11.30;;;8.68;;
55312;SDS011;46892;45.668;11.756;2023-09-12T07:38:04;12.88;;;9.10;;
55312;SDS011;46892;45.668;11.756;2023-09-12T07:40:29;11.88;;;8.75;;
55312;SDS011;46892;45.668;11.756;2023-09-12T07:42:55;11.20;;;7.47;;
55312;SDS011;46892;45.668;11.756;2023-09-12T07:45:21;10.13;;;7.65;;
55312;SDS011;46892;45.668;11.756;2023-09-12T07:47:46;10.70;;;7.93;;
55312;SDS011;46892;45.668;11.756;2023-09-12T07:50:13;10.70;;;7.82;;
55312;SDS011;46892;45.668;11.756;2023-09-12T07:52:39;16.25;;;9.02;;
55312;SDS011;46892;45.668;11.756;2023-09-12T07:55:06;11.02;;;7.60;;
55312;SDS011;46892;45.668;11.756;2023-09-12T07:57:33;10.07;;;7.60;;
55312;SDS011;46892;45.668;11.756;2023-09-12T07:59:59;14.77;;;9.52;;
55312;SDS011;46892;45.668;11.756;2023-09-12T08:02:25;11.23;;;8.30;;
55312;SDS011;46892;45.668;11.756;2023-09-12T08:04:51;12.77;;;9.15;;
55312;SDS011;46892;45.668;11.756;2023-09-12T08:07:18;11.43;;;8.35;;
55312;SDS011;46892;45.668;11.756;2023-09-12T08:09:51;13.35;;;9.65;;
55312;SDS011;46892;45.668;11.756;2023-09-12T08:12:18;13.40;;;9.63;;
55312;SDS011;46892;45.668;11.756;2023-09-12T08:14:44;12.68;;;9.52;;
55312;SDS011;46892;45.668;11.756;2023-09-12T08:17:10;12.27;;;8.45;;
55312;SDS011;46892;45.668;11.756;2023-09-12T08:19:37;12.30;;;8.60;;
55312;SDS011;46892;45.668;11.756;2023-09-12T08:22:03;13.38;;;8.95;;
55312;SDS011;46892;45.668;11.756;2023-09-12T08:24:29;9.93;;;7.88;;
55312;SDS011;46892;45.668;11.756;2023-09-12T08:26:55;9.88;;;7.82;;
55312;SDS011;46892;45.668;11.756;2023-09-12T08:29:21;12.68;;;7.82;;
55312;SDS011;46892;45.668;11.756;2023-09-12T08:31:46;11.35;;;7.80;;
55312;SDS011;46892;45.668;11.756;2023-09-12T08:34:12;11.57;;;8.85;;
55312;SDS011;46892;45.668;11.756;2023-09-12T08:36:38;13.43;;;9.05;;
55312;SDS011;46892;45.668;11.756;2023-09-12T08:39:04;11.32;;;8.40;;
55312;SDS011;46892;45.668;11.756;2023-09-12T08:41:33;10.50;;;8.82;;
55312;SDS011;46892;45.668;11.756;2023-09-12T08:43:59;12.23;;;8.90;;
55312;SDS011;46892;45.668;11.756;2023-09-12T08:46:26;14.00;;;8.30;;
55312;SDS011;46892;45.668;11.756;2023-09-12T08:48:55;15.48;;;9.75;;
55312;SDS011;46892;45.668;11.756;2023-09-12T08:51:24;15.18;;;8.48;;
55312;SDS011;46892;45.668;11.756;2023-09-12T08:53:50;13.30;;;8.43;;
55312;SDS011;46892;45.668;11.756;2023-09-12T08:56:16;17.40;;;9.05;;
55312;SDS011;46892;45.668;11.756;2023-09-12T08:58:43;15.88;;;11.45;;
55312;SDS011;46892;45.668;11.756;2023-09-12T09:01:13;13.85;;;10.30;;
55312;SDS011;46892;45.668;11.756;2023-09-12T09:03:41;11.73;;;8.98;;
55312;SDS011;46892;45.668;11.756;2023-09-12T09:06:08;15.23;;;9.30;;
55312;SDS011;46892;45.668;11.756;2023-09-12T09:08:35;13.90;;;10.65;;
55312;SDS011;46892;45.668;11.756;2023-09-12T09:11:01;11.57;;;10.38;;
55312;SDS011;46892;45.668;11.756;2023-09-12T09:13:28;12.18;;;9.75;;
55312;SDS011;46892;45.668;11.756;2023-09-12T09:18:53;15.85;;;10.48;;
55312;SDS011;46892;45.668;11.756;2023-09-12T09:21:20;11.50;;;9.60;;
55312;SDS011;46892;45.668;11.756;2023-09-12T09:23:51;11.30;;;9.77;;
55312;SDS011;46892;45.668;11.756;2023-09-12T09:26:17;11.75;;;8.95;;
55312;SDS011;46892;45.668;11.756;2023-09-12T09:28:44;13.75;;;9.70;;
55312;SDS011;46892;45.668;11.756;2023-09-12T09:31:10;11.75;;;8.82;;
55312;SDS011;46892;45.668;11.756;2023-09-12T09:33:37;11.43;;;9.05;;
55312;SDS011;46892;45.668;11.756;2023-09-12T09:36:06;14.10;;;9.95;;
55312;SDS011;46892;45.668;11.756;2023-09-12T09:38:34;16.13;;;11.15;;
55312;SDS011;46892;45.668;11.756;2023-09-12T09:41:03;13.05;;;10.55;;
55312;SDS011;46892;45.668;11.756;2023-09-12T09:45:57;12.98;;;10.50;;
55312;SDS011;46892;45.668;11.756;2023-09-12T09:48:23;13.60;;;10.27;;
55312;SDS011;46892;45.668;11.756;2023-09-12T09:50:52;12.43;;;9.73;;
55312;SDS011;46892;45.668;11.756;2023-09-12T09:53:25;15.20;;;11.10;;
55312;SDS011;46892;45.668;11.756;2023-09-12T09:55:52;12.55;;;8.55;;
55312;SDS011;46892;45.668;11.756;2023-09-12T09:58:18;12.48;;;8.32;;
55312;SDS011;46892;45.668;11.756;2023-09-12T10:00:48;11.23;;;8.93;;
55312;SDS011;46892;45.668;11.756;2023-09-12T10:03:15;9.65;;;7.63;;
55312;SDS011;46892;45.668;11.756;2023-09-12T10:05:46;9.57;;;7.18;;
55312;SDS011;46892;45.668;11.756;2023-09-12T10:08:14;10.98;;;7.90;;
55312;SDS011;46892;45.668;11.756;2023-09-12T10:10:42;10.63;;;7.55;;
55312;SDS011;46892;45.668;11.756;2023-09-12T10:13:08;11.32;;;7.28;;
55312;SDS011;46892;45.668;11.756;2023-09-12T10:15:34;12.90;;;7.90;;
55312;SDS011;46892;45.668;11.756;2023-09-12T10:18:04;11.77;;;8.65;;
55312;SDS011;46892;45.668;11.756;2023-09-12T10:20:35;11.18;;;7.75;;
55312;SDS011;46892;45.668;11.756;2023-09-12T10:23:08;9.90;;;7.50;;
55312;SDS011;46892;45.668;11.756;2023-09-12T10:25:42;7.22;;;5.75;;
55312;SDS011;46892;45.668;11.756;2023-09-12T10:28:08;7.47;;;5.43;;
55312;SDS011;46892;45.668;11.756;2023-09-12T10:30:36;7.63;;;5.72;;
55312;SDS011;46892;45.668;11.756;2023-09-12T10:33:02;7.57;;;5.57;;
55312;SDS011;46892;45.668;11.756;2023-09-12T10:35:30;14.40;;;6.80;;
55312;SDS011;46892;45.668;11.756;2023-09-12T10:38:00;8.25;;;5.90;;
55312;SDS011;46892;45.668;11.756;2023-09-12T10:40:30;8.55;;;6.25;;
55312;SDS011;46892;45.668;11.756;2023-09-12T10:42:58;9.13;;;6.68;;
55312;SDS011;46892;45.668;11.756;2023-09-12T10:45:28;8.77;;;6.00;;
55312;SDS011;46892;45.668;11.756;2023-09-12T10:47:56;9.05;;;5.80;;
55312;SDS011;46892;45.668;11.756;2023-09-12T10:50:22;8.00;;;5.70;;
55312;SDS011;46892;45.668;11.756;2023-09-12T10:52:47;7.60;;;5.68;;
55312;SDS011;46892;45.668;11.756;2023-09-12T10:55:16;9.50;;;6.13;;
55312;SDS011;46892;45.668;11.756;2023-09-12T10:58:00;10.32;;;6.47;;
55312;SDS011;46892;45.668;11.756;2023-09-12T11:00:31;8.95;;;6.35;;
55312;SDS011;46892;45.668;11.756;2023-09-12T11:02:58;8.27;;;6.85;;
55312;SDS011;46892;45.668;11.756;2023-09-12T11:05:51;8.13;;;6.20;;
55312;SDS011;46892;45.668;11.756;2023-09-12T11:08:18;9.55;;;5.88;;
55312;SDS011;46892;45.668;11.756;2023-09-12T11:10:44;9.40;;;6.22;;
55312;SDS011;46892;45.668;11.756;2023-09-12T11:13:17;8.88;;;6.28;;
55312;SDS011;46892;45.668;11.756;2023-09-12T11:19:00;7.05;;;6.13;;
55312;SDS011;46892;45.668;11.756;2023-09-12T11:21:39;11.48;;;6.30;;
55312;SDS011;46892;45.668;11.756;2023-09-12T11:24:06;11.68;;;6.30;;
55312;SDS011;46892;45.668;11.756;2023-09-12T11:26:32;8.48;;;6.32;;
55312;SDS011;46892;45.668;11.756;2023-09-12T11:29:09;10.57;;;7.32;;
55312;SDS011;46892;45.668;11.756;2023-09-12T11:31:37;10.70;;;7.93;;
55312;SDS011;46892;45.668;11.756;2023-09-12T11:34:10;9.32;;;6.70;;
55312;SDS011;46892;45.668;11.756;2023-09-12T11:36:41;8.85;;;6.82;;
55312;SDS011;46892;45.668;11.756;2023-09-12T11:39:23;8.98;;;6.82;;
55312;SDS011;46892;45.668;11.756;2023-09-12T11:41:50;10.77;;;7.07;;
55312;SDS011;46892;45.668;11.756;2023-09-12T11:44:17;10.45;;;7.85;;
55312;SDS011;46892;45.668;11.756;2023-09-12T11:46:46;9.30;;;7.00;;
55312;SDS011;46892;45.668;11.756;2023-09-12T11:49:17;9.10;;;7.55;;
55312;SDS011;46892;45.668;11.756;2023-09-12T11:51:50;9.55;;;7.75;;
55312;SDS011;46892;45.668;11.756;2023-09-12T11:54:25;11.50;;;7.38;;
55312;SDS011;46892;45.668;11.756;2023-09-12T11:56:51;12.38;;;8.68;;
55312;SDS011;46892;45.668;11.756;2023-09-12T11:59:28;10.95;;;7.35;;
55312;SDS011;46892;45.668;11.756;2023-09-12T12:01:55;10.68;;;8.18;;
55312;SDS011;46892;45.668;11.756;2023-09-12T12:04:21;71.63;;;13.75;;
55312;SDS011;46892;45.668;11.756;2023-09-12T12:06:49;21.75;;;8.27;;
55312;SDS011;46892;45.668;11.756;2023-09-12T12:09:16;10.65;;;7.90;;
55312;SDS011;46892;45.668;11.756;2023-09-12T12:11:46;9.20;;;7.30;;
55312;SDS011;46892;45.668;11.756;2023-09-12T12:19:08;9.80;;;7.38;;
55312;SDS011;46892;45.668;11.756;2023-09-12T12:21:36;10.35;;;7.05;;
55312;SDS011;46892;45.668;11.756;2023-09-12T12:24:07;9.45;;;7.53;;
55312;SDS011;46892;45.668;11.756;2023-09-12T12:26:35;8.77;;;7.65;;
55312;SDS011;46892;45.668;11.756;2023-09-12T12:29:01;9.88;;;8.05;;
55312;SDS011;46892;45.668;11.756;2023-09-12T12:31:28;8.73;;;6.80;;
55312;SDS011;46892;45.668;11.756;2023-09-12T12:33:54;12.25;;;9.18;;
55312;SDS011;46892;45.668;11.756;2023-09-12T12:36:20;13.27;;;8.75;;
55312;SDS011;46892;45.668;11.756;2023-09-12T12:38:47;10.57;;;7.57;;
55312;SDS011;46892;45.668;11.756;2023-09-12T12:41:17;14.13;;;9.30;;
55312;SDS011;46892;45.668;11.756;2023-09-12T12:43:56;11.02;;;8.90;;
55312;SDS011;46892;45.668;11.756;2023-09-12T12:46:26;12.20;;;8.32;;
55312;SDS011;46892;45.668;11.756;2023-09-12T12:48:52;16.08;;;7.72;;
55312;SDS011;46892;45.668;11.756;2023-09-12T12:51:24;13.05;;;8.90;;
55312;SDS011;46892;45.668;11.756;2023-09-12T12:53:54;9.88;;;7.55;;
55312;SDS011;46892;45.668;11.756;2023-09-12T12:56:27;12.02;;;10.02;;
55312;SDS011;46892;45.668;11.756;2023-09-12T12:58:55;9.20;;;8.13;;
55312;SDS011;46892;45.668;11.756;2023-09-12T13:01:23;9.52;;;8.13;;
55312;SDS011;46892;45.668;11.756;2023-09-12T13:03:49;9.40;;;8.10;;
55312;SDS011;46892;45.668;11.756;2023-09-12T13:06:15;13.60;;;9.65;;
55312;SDS011;46892;45.668;11.756;2023-09-12T13:08:43;11.65;;;8.75;;
55312;SDS011;46892;45.668;11.756;2023-09-12T13:11:10;15.45;;;9.25;;
55312;SDS011;46892;45.668;11.756;2023-09-12T13:13:37;15.20;;;9.10;;
55312;SDS011;46892;45.668;11.756;2023-09-12T13:16:04;12.95;;;9.85;;
55312;SDS011;46892;45.668;11.756;2023-09-12T13:18:31;12.00;;;9.18;;
55312;SDS011;46892;45.668;11.756;2023-09-12T13:20:58;12.93;;;9.23;;
55312;SDS011;46892;45.668;11.756;2023-09-12T13:23:23;12.30;;;9.00;;
55312;SDS011;46892;45.668;11.756;2023-09-12T13:25:50;14.57;;;9.85;;
55312;SDS011;46892;45.668;11.756;2023-09-12T13:28:16;12.40;;;9.65;;
55312;SDS011;46892;45.668;11.756;2023-09-12T13:30:42;13.50;;;8.68;;
55312;SDS011;46892;45.668;11.756;2023-09-12T13:33:09;17.77;;;10.07;;
55312;SDS011;46892;45.668;11.756;2023-09-12T13:35:40;10.38;;;8.55;;
55312;SDS011;46892;45.668;11.756;2023-09-12T13:38:06;16.38;;;9.40;;
55312;SDS011;46892;45.668;11.756;2023-09-12T13:40:37;11.93;;;9.30;;
55312;SDS011;46892;45.668;11.756;2023-09-12T13:43:04;12.07;;;9.05;;
55312;SDS011;46892;45.668;11.756;2023-09-12T13:45:30;13.38;;;9.68;;
55312;SDS011;46892;45.668;11.756;2023-09-12T13:47:57;12.55;;;10.50;;
55312;SDS011;46892;45.668;11.756;2023-09-12T13:50:23;11.38;;;8.40;;
55312;SDS011;46892;45.668;11.756;2023-09-12T13:52:50;10.90;;;7.82;;
55312;SDS011;46892;45.668;11.756;2023-09-12T13:55:16;10.40;;;8.10;;
55312;SDS011;46892;45.668;11.756;2023-09-12T13:57:42;11.35;;;9.00;;
55312;SDS011;46892;45.668;11.756;2023-09-12T14:00:08;9.45;;;8.15;;
55312;SDS011;46892;45.668;11.756;2023-09-12T14:02:34;16.42;;;10.55;;
55312;SDS011;46892;45.668;11.756;2023-09-12T14:05:00;11.52;;;8.63;;
55312;SDS011;46892;45.668;11.756;2023-09-12T14:07:26;11.95;;;7.20;;
55312;SDS011;46892;45.668;11.756;2023-09-12T14:09:51;9.48;;;7.78;;
55312;SDS011;46892;45.668;11.756;2023-09-12T14:12:23;13.48;;;9.27;;
55312;SDS011;46892;45.668;11.756;2023-09-12T14:14:51;11.93;;;8.70;;
55312;SDS011;46892;45.668;11.756;2023-09-12T14:17:17;12.23;;;9.52;;
55312;SDS011;46892;45.668;11.756;2023-09-12T14:19:42;15.35;;;9.38;;
55312;SDS011;46892;45.668;11.756;2023-09-12T14:22:08;16.05;;;9.68;;
55312;SDS011;46892;45.668;11.756;2023-09-12T14:24:34;10.60;;;7.95;;
55312;SDS011;46892;45.668;11.756;2023-09-12T14:27:00;14.73;;;9.65;;
55312;SDS011;46892;45.668;11.756;2023-09-12T14:29:25;13.77;;;9.25;;
55312;SDS011;46892;45.668;11.756;2023-09-12T14:31:54;14.73;;;9.35;;
55312;SDS011;46892;45.668;11.756;2023-09-12T14:34:26;11.68;;;8.98;;